Time;durP1;ratioP1;P1;durP2;ratioP2;P2;SDS_P1;SDS_P2;PMS_P1;PMS_P2;Temp;Humidity;BMP_temperature;BMP_pressure;BME280_temperature;BME280_humidity;BME280_pressure;Samples;Min_cycle;Max_cycle;Signal;HPM_P1;HPM_P2
2023/05/14 00:00:58;;;;;;;;;;;12.60;99.90;;;;;;5038377;28;19925;-68
2023/05/14 00:03:24;;;;;;;;;;;12.60;99.90;;;;;;5037239;28;19928;-69
2023/05/14 00:05:50;;;;;;;;;;;12.60;99.90;;;;;;5043519;28;19959;-68
2023/05/14 00:08:15;;;;;;;;;;;12.60;99.90;;;;;;5044740;28;19925;-68
2023/05/14 00:10:41;;;;;;;;;;;12.50;99.90;;;;;;5033535;28;19921;-69
2023/05/14 00:13:06;;;;;;;;;;;12.60;99.90;;;;;;5038732;28;19964;-68
2023/05/14 00:15:32;;;;;;;;;;;12.60;99.90;;;;;;5037114;28;20391;-66
2023/05/14 00:17:57;;;;;;;;;;;12.40;99.90;;;;;;5043403;28;19925;-68
2023/05/14 00:20:23;;;;;;;;;;;12.40;99.90;;;;;;5050845;28;19921;-69
2023/05/14 00:22:48;;;;;;;;;;;12.30;99.90;;;;;;5048889;28;19943;-68
2023/05/14 00:25:13;;;;;;;;;;;12.30;99.90;;;;;;5045413;28;19968;-69
2023/05/14 00:27:39;;;;;;;;;;;12.20;99.90;;;;;;5039080;28;19928;-69
2023/05/14 00:30:08;;;;;;;;;;;12.20;99.90;;;;;;5045601;28;20417;-68
2023/05/14 00:32:33;;;;;;;;;;;12.10;99.90;;;;;;5048477;28;19925;-69
2023/05/14 00:34:59;;;;;;;;;;;12.10;99.90;;;;;;5048250;28;20444;-68
2023/05/14 00:37:24;;;;;;;;;;;12.00;99.90;;;;;;5046927;28;20309;-69
2023/05/14 00:39:50;;;;;;;;;;;12.00;99.90;;;;;;5049524;28;20386;-68
2023/05/14 00:42:15;;;;;;;;;;;12.00;99.90;;;;;;5071816;28;19920;-68
2023/05/14 00:44:41;;;;;;;;;;;12.00;99.90;;;;;;5046822;28;19928;-66
2023/05/14 00:47:07;;;;;;;;;;;12.00;99.90;;;;;;5041758;28;19947;-66
2023/05/14 00:49:32;;;;;;;;;;;12.00;99.90;;;;;;5048289;28;19927;-66
2023/05/14 00:51:59;;;;;;;;;;;11.90;99.90;;;;;;5052004;28;19924;-66
2023/05/14 00:54:25;;;;;;;;;;;11.90;99.90;;;;;;5032931;28;19925;-66
2023/05/14 00:56:51;;;;;;;;;;;11.90;99.90;;;;;;5039429;28;20299;-66
2023/05/14 00:59:17;;;;;;;;;;;11.90;99.90;;;;;;5045725;28;19928;-66
2023/05/14 01:01:42;;;;;;;;;;;11.90;99.90;;;;;;5035977;28;19944;-67
2023/05/14 01:04:09;;;;;;;;;;;11.90;99.90;;;;;;5040034;28;20012;-68
2023/05/14 01:06:46;;;;;;;;;;;11.90;99.90;;;;;;5048608;28;19920;-68
2023/05/14 01:09:12;;;;;;;;;;;11.90;99.90;;;;;;5042567;28;20268;-67
2023/05/14 01:11:51;;;;;;;;;;;11.80;99.90;;;;;;5048720;28;20415;-68
2023/05/14 01:14:16;;;;;;;;;;;11.80;99.90;;;;;;5035902;28;19929;-68
2023/05/14 01:16:44;;;;;;;;;;;11.80;99.90;;;;;;5047360;28;19920;-68
2023/05/14 01:19:20;;;;;;;;;;;11.80;99.90;;;;;;5044152;28;20391;-67
2023/05/14 01:21:45;;;;;;;;;;;11.70;99.90;;;;;;5049158;28;19921;-68
2023/05/14 01:24:11;;;;;;;;;;;11.70;99.90;;;;;;5043035;28;19979;-68
2023/05/14 01:26:36;;;;;;;;;;;11.60;99.90;;;;;;5063229;28;19971;-68
2023/05/14 01:29:18;;;;;;;;;;;11.50;99.90;;;;;;5040701;28;20444;-66
2023/05/14 01:31:44;;;;;;;;;;;11.50;99.90;;;;;;5041909;28;20391;-67
2023/05/14 01:34:11;;;;;;;;;;;11.40;99.90;;;;;;5051567;28;19925;-68
2023/05/14 01:36:37;;;;;;;;;;;11.30;99.90;;;;;;5038386;28;19921;-67
2023/05/14 01:39:03;;;;;;;;;;;11.20;99.90;;;;;;5045220;28;19928;-68
2023/05/14 01:41:29;;;;;;;;;;;11.10;99.90;;;;;;5046032;28;19936;-68
2023/05/14 01:43:55;;;;;;;;;;;11.10;99.90;;;;;;5049988;28;19921;-67
2023/05/14 01:46:22;;;;;;;;;;;11.10;99.90;;;;;;5042304;28;19978;-67
2023/05/14 01:48:48;;;;;;;;;;;11.10;99.90;;;;;;5043270;28;20350;-67
2023/05/14 01:51:14;;;;;;;;;;;11.00;99.90;;;;;;5043673;28;20006;-67
2023/05/14 01:53:39;;;;;;;;;;;11.00;99.90;;;;;;5037432;28;20032;-67
2023/05/14 01:56:05;;;;;;;;;;;11.00;99.90;;;;;;5041007;28;19929;-66
2023/05/14 01:58:30;;;;;;;;;;;11.10;99.90;;;;;;5047306;28;19920;-68
2023/05/14 02:00:56;;;;;;;;;;;11.10;99.90;;;;;;5052661;28;19921;-68
2023/05/14 02:03:21;;;;;;;;;;;11.10;99.90;;;;;;5043141;28;19963;-68
2023/05/14 02:05:47;;;;;;;;;;;11.00;99.90;;;;;;5044500;28;19920;-68
2023/05/14 02:08:12;;;;;;;;;;;11.00;99.90;;;;;;5040509;28;19921;-67
2023/05/14 02:10:38;;;;;;;;;;;10.90;99.90;;;;;;5040792;28;19932;-68
2023/05/14 02:13:03;;;;;;;;;;;10.80;99.90;;;;;;5043427;28;19925;-68
2023/05/14 02:15:29;;;;;;;;;;;10.80;99.90;;;;;;5050747;28;19927;-68
2023/05/14 02:17:55;;;;;;;;;;;10.60;99.90;;;;;;5047133;28;20402;-68
2023/05/14 02:20:20;;;;;;;;;;;10.60;99.90;;;;;;5046620;28;19991;-68
2023/05/14 02:22:46;;;;;;;;;;;10.60;99.90;;;;;;5044429;28;19921;-68
2023/05/14 02:25:11;;;;;;;;;;;10.60;99.90;;;;;;5061339;28;20378;-68
2023/05/14 02:27:37;;;;;;;;;;;10.70;99.90;;;;;;5039251;28;19920;-67
2023/05/14 02:30:03;;;;;;;;;;;10.80;99.90;;;;;;5044165;28;19921;-68
2023/05/14 02:32:29;;;;;;;;;;;10.80;99.90;;;;;;5054320;28;20302;-68
2023/05/14 02:34:54;;;;;;;;;;;10.80;99.90;;;;;;5045492;28;19921;-67
2023/05/14 02:37:19;;;;;;;;;;;10.80;99.90;;;;;;5046026;28;20517;-68
2023/05/14 02:39:45;;;;;;;;;;;10.80;99.90;;;;;;5045371;28;19925;-67
2023/05/14 02:42:10;;;;;;;;;;;10.80;99.90;;;;;;5050841;28;20317;-67
2023/05/14 02:44:36;;;;;;;;;;;10.70;99.90;;;;;;5046427;28;20412;-68
2023/05/14 02:47:01;;;;;;;;;;;10.70;99.90;;;;;;5044351;28;19921;-68
2023/05/14 02:49:27;;;;;;;;;;;10.70;99.90;;;;;;5052550;28;20357;-67
2023/05/14 02:51:53;;;;;;;;;;;10.60;99.90;;;;;;5048313;28;19964;-68
2023/05/14 02:54:18;;;;;;;;;;;10.60;99.90;;;;;;5044590;28;20012;-68
2023/05/14 02:56:44;;;;;;;;;;;10.60;99.90;;;;;;5045162;28;19963;-68
2023/05/14 02:59:09;;;;;;;;;;;10.60;99.90;;;;;;5047278;28;20268;-67
2023/05/14 03:01:35;;;;;;;;;;;10.60;99.90;;;;;;5043154;28;19921;-67
2023/05/14 03:04:00;;;;;;;;;;;10.60;99.90;;;;;;5045100;28;19927;-68
2023/05/14 03:06:26;;;;;;;;;;;10.50;99.90;;;;;;5053792;28;20450;-67
2023/05/14 03:08:51;;;;;;;;;;;10.50;99.90;;;;;;5048803;28;20465;-66
2023/05/14 03:11:17;;;;;;;;;;;10.50;99.90;;;;;;5040338;28;19947;-67
2023/05/14 03:13:42;;;;;;;;;;;10.40;99.90;;;;;;5040157;28;19972;-68
2023/05/14 03:16:08;;;;;;;;;;;10.30;99.90;;;;;;5034393;28;19940;-68
2023/05/14 03:18:35;;;;;;;;;;;10.20;99.90;;;;;;5049110;28;19921;-68
2023/05/14 03:21:01;;;;;;;;;;;10.10;99.90;;;;;;5043552;28;19927;-68
2023/05/14 03:23:26;;;;;;;;;;;10.00;99.90;;;;;;5039650;28;19925;-67
2023/05/14 03:25:52;;;;;;;;;;;10.00;99.90;;;;;;5064065;28;20294;-66
2023/05/14 03:28:17;;;;;;;;;;;10.00;99.90;;;;;;5071949;28;19920;-68
2023/05/14 03:30:43;;;;;;;;;;;10.00;99.90;;;;;;5039801;28;19920;-68
2023/05/14 03:33:08;;;;;;;;;;;9.90;99.90;;;;;;5044174;28;20007;-67
2023/05/14 03:35:34;;;;;;;;;;;9.80;99.90;;;;;;5044232;28;19921;-67
2023/05/14 03:37:59;;;;;;;;;;;9.70;99.90;;;;;;5043136;28;19920;-68
2023/05/14 03:40:25;;;;;;;;;;;9.70;99.90;;;;;;5053292;28;19924;-68
2023/05/14 03:42:51;;;;;;;;;;;9.90;99.90;;;;;;5048240;28;19921;-67
2023/05/14 03:45:16;;;;;;;;;;;10.00;99.90;;;;;;5042556;28;20272;-68
2023/05/14 03:47:42;;;;;;;;;;;10.00;99.90;;;;;;5046482;28;20375;-68
2023/05/14 03:50:07;;;;;;;;;;;10.10;99.90;;;;;;5043372;28;19927;-68
2023/05/14 03:52:33;;;;;;;;;;;10.10;99.90;;;;;;5040703;28;19925;-66
2023/05/14 03:54:58;;;;;;;;;;;10.10;99.90;;;;;;5044249;28;20011;-68
2023/05/14 03:57:24;;;;;;;;;;;10.10;99.90;;;;;;5042305;28;19921;-69
2023/05/14 03:59:49;;;;;;;;;;;10.10;99.90;;;;;;5045260;28;19921;-68
2023/05/14 04:02:15;;;;;;;;;;;10.00;99.90;;;;;;5045218;28;19927;-68
2023/05/14 04:04:41;;;;;;;;;;;10.00;99.90;;;;;;5042695;28;19955;-68
2023/05/14 04:07:07;;;;;;;;;;;10.00;99.90;;;;;;5036463;28;20011;-68
2023/05/14 04:09:33;;;;;;;;;;;10.00;99.90;;;;;;5042275;28;19928;-66
2023/05/14 04:11:58;;;;;;;;;;;10.00;99.90;;;;;;5048058;28;19925;-69
2023/05/14 04:14:24;;;;;;;;;;;10.10;99.90;;;;;;5038385;28;20401;-68
2023/05/14 04:16:49;;;;;;;;;;;10.10;99.90;;;;;;5041262;28;20415;-67
2023/05/14 04:19:15;;;;;;;;;;;10.20;99.90;;;;;;5050773;28;19960;-68
2023/05/14 04:21:40;;;;;;;;;;;10.20;99.90;;;;;;5037443;28;19928;-68
2023/05/14 04:24:06;;;;;;;;;;;10.20;99.90;;;;;;5037638;28;20382;-67
2023/05/14 04:26:31;;;;;;;;;;;10.20;99.90;;;;;;5038251;28;20382;-69
2023/05/14 04:29:01;;;;;;;;;;;10.10;99.90;;;;;;5042004;28;19944;-69
2023/05/14 04:31:27;;;;;;;;;;;10.00;99.90;;;;;;5052124;28;20000;-68
2023/05/14 04:33:52;;;;;;;;;;;10.00;99.90;;;;;;5040037;28;20015;-68
2023/05/14 04:36:18;;;;;;;;;;;10.10;99.90;;;;;;5028147;28;20354;-69
2023/05/14 04:38:43;;;;;;;;;;;10.10;99.90;;;;;;5029330;28;19928;-68
2023/05/14 04:41:09;;;;;;;;;;;10.10;99.90;;;;;;5039468;28;20394;-68
2023/05/14 04:43:34;;;;;;;;;;;10.10;99.90;;;;;;5041735;28;19936;-68
2023/05/14 04:46:00;;;;;;;;;;;10.20;99.90;;;;;;5035123;28;19928;-69
2023/05/14 04:48:26;;;;;;;;;;;10.20;99.90;;;;;;5033367;28;19924;-68
2023/05/14 04:50:52;;;;;;;;;;;10.20;99.90;;;;;;5042046;28;19928;-68
2023/05/14 04:53:17;;;;;;;;;;;10.30;99.90;;;;;;5036496;28;19924;-68
2023/05/14 04:55:43;;;;;;;;;;;10.40;99.90;;;;;;5047724;28;19925;-67
2023/05/14 04:58:08;;;;;;;;;;;10.50;99.90;;;;;;5047135;28;19925;-67
2023/05/14 05:00:34;;;;;;;;;;;10.60;99.90;;;;;;5033848;28;19932;-65
2023/05/14 05:02:59;;;;;;;;;;;10.70;99.90;;;;;;5039795;28;20438;-67
2023/05/14 05:05:25;;;;;;;;;;;10.80;99.90;;;;;;5035256;28;19975;-67
2023/05/14 05:07:50;;;;;;;;;;;11.00;99.90;;;;;;5037447;28;19932;-68
2023/05/14 05:10:16;;;;;;;;;;;11.00;99.90;;;;;;5031664;28;19986;-68
2023/05/14 05:12:41;;;;;;;;;;;11.20;99.90;;;;;;5031991;28;19929;-67
2023/05/14 05:15:08;;;;;;;;;;;11.20;99.90;;;;;;5033771;28;19931;-68
2023/05/14 05:17:33;;;;;;;;;;;11.30;99.90;;;;;;5029628;28;19924;-67
2023/05/14 05:19:59;;;;;;;;;;;11.40;99.90;;;;;;5039522;28;20489;-68
2023/05/14 05:22:25;;;;;;;;;;;11.50;99.90;;;;;;5028673;28;19975;-69
2023/05/14 05:24:50;;;;;;;;;;;11.60;99.90;;;;;;5032773;28;20310;-67
2023/05/14 05:27:16;;;;;;;;;;;11.70;99.90;;;;;;5019550;28;19951;-68
2023/05/14 05:29:42;;;;;;;;;;;11.80;99.90;;;;;;5026181;28;19925;-67
2023/05/14 05:32:08;;;;;;;;;;;11.90;99.90;;;;;;5025311;28;19975;-67
2023/05/14 05:34:33;;;;;;;;;;;11.90;99.90;;;;;;5018879;28;19983;-67
2023/05/14 05:36:59;;;;;;;;;;;12.00;99.90;;;;;;5031038;28;20337;-68
2023/05/14 05:39:24;;;;;;;;;;;12.10;99.90;;;;;;5027121;28;19960;-67
2023/05/14 05:41:50;;;;;;;;;;;12.10;99.90;;;;;;5028122;28;20276;-69
2023/05/14 05:44:15;;;;;;;;;;;12.20;99.90;;;;;;5031005;28;19932;-69
2023/05/14 05:46:41;;;;;;;;;;;12.30;99.90;;;;;;5027962;28;20686;-68
2023/05/14 05:49:06;;;;;;;;;;;12.40;99.90;;;;;;5021730;28;19921;-67
2023/05/14 05:51:32;;;;;;;;;;;12.40;99.90;;;;;;5027227;28;20376;-68
2023/05/14 05:53:57;;;;;;;;;;;12.60;99.90;;;;;;5029691;28;19933;-71
2023/05/14 05:56:23;;;;;;;;;;;12.70;99.90;;;;;;5030068;28;19972;-69
2023/05/14 05:58:48;;;;;;;;;;;12.70;99.90;;;;;;5021008;28;19929;-67
2023/05/14 06:01:14;;;;;;;;;;;12.80;99.90;;;;;;5026896;28;19936;-73
2023/05/14 06:03:39;;;;;;;;;;;12.90;99.90;;;;;;5027287;28;19964;-67
2023/05/14 06:06:05;;;;;;;;;;;12.90;99.90;;;;;;5027372;28;19925;-69
2023/05/14 06:08:30;;;;;;;;;;;13.00;99.90;;;;;;5027625;28;19929;-66
2023/05/14 06:10:56;;;;;;;;;;;13.00;99.90;;;;;;5031264;28;19944;-66
2023/05/14 06:13:21;;;;;;;;;;;13.00;99.90;;;;;;5032185;28;20514;-68
2023/05/14 06:15:47;;;;;;;;;;;13.10;99.90;;;;;;5028530;28;19925;-68
2023/05/14 06:18:12;;;;;;;;;;;13.20;99.90;;;;;;5023554;28;19967;-69
2023/05/14 06:20:40;;;;;;;;;;;13.30;99.90;;;;;;5027940;28;19932;-69
2023/05/14 06:23:06;;;;;;;;;;;13.30;99.90;;;;;;5024941;28;20328;-69
2023/05/14 06:25:32;;;;;;;;;;;13.50;99.90;;;;;;5022626;28;20033;-65
2023/05/14 06:27:57;;;;;;;;;;;13.50;99.90;;;;;;5028580;28;20284;-69
2023/05/14 06:30:23;;;;;;;;;;;13.50;99.90;;;;;;5028729;28;19925;-69
2023/05/14 06:32:49;;;;;;;;;;;13.60;99.90;;;;;;5024654;28;20745;-68
2023/05/14 06:35:14;;;;;;;;;;;13.70;99.90;;;;;;5047685;28;19929;-68
2023/05/14 06:37:40;;;;;;;;;;;13.70;99.90;;;;;;5026204;28;19925;-69
2023/05/14 06:40:05;;;;;;;;;;;13.70;99.90;;;;;;5022189;28;19925;-70
2023/05/14 06:42:31;;;;;;;;;;;13.80;99.90;;;;;;5027145;28;19924;-68
2023/05/14 06:44:56;;;;;;;;;;;13.90;99.90;;;;;;5026097;28;20011;-66
2023/05/14 06:47:22;;;;;;;;;;;14.00;99.90;;;;;;5022978;28;19932;-67
2023/05/14 06:49:47;;;;;;;;;;;14.10;99.90;;;;;;5022474;28;20563;-69
2023/05/14 06:52:13;;;;;;;;;;;14.10;99.90;;;;;;5030450;28;20364;-69
2023/05/14 06:54:38;;;;;;;;;;;14.30;99.90;;;;;;5028131;28;19933;-70
2023/05/14 06:57:04;;;;;;;;;;;14.30;99.90;;;;;;5039772;28;20556;-67
2023/05/14 06:59:29;;;;;;;;;;;14.40;99.90;;;;;;5051077;28;19925;-69
2023/05/14 07:01:55;;;;;;;;;;;14.50;99.90;;;;;;5047683;28;20329;-68
2023/05/14 07:04:20;;;;;;;;;;;14.70;99.90;;;;;;5043293;28;19951;-69
2023/05/14 07:06:46;;;;;;;;;;;14.70;99.90;;;;;;5040264;28;20004;-69
2023/05/14 07:09:12;;;;;;;;;;;14.80;99.90;;;;;;5037180;28;19928;-68
2023/05/14 07:11:37;;;;;;;;;;;14.90;99.90;;;;;;5045589;28;19921;-67
2023/05/14 07:14:03;;;;;;;;;;;15.10;99.90;;;;;;5033312;28;20064;-67
2023/05/14 07:16:28;;;;;;;;;;;15.20;99.90;;;;;;5032531;28;19928;-67
2023/05/14 07:18:54;;;;;;;;;;;15.40;99.90;;;;;;5033487;28;20323;-67
2023/05/14 07:21:19;;;;;;;;;;;15.60;99.90;;;;;;5035038;28;19932;-70
2023/05/14 07:23:45;;;;;;;;;;;15.80;99.90;;;;;;5041031;28;20414;-67
2023/05/14 07:26:10;;;;;;;;;;;16.00;99.90;;;;;;5050529;28;19921;-68
2023/05/14 07:28:36;;;;;;;;;;;16.10;99.90;;;;;;5050588;28;19920;-67
2023/05/14 07:31:03;;;;;;;;;;;16.20;99.90;;;;;;5033522;28;19928;-66
2023/05/14 07:33:29;;;;;;;;;;;16.30;99.90;;;;;;5032664;28;20346;-67
2023/05/14 07:35:54;;;;;;;;;;;16.50;99.90;;;;;;5034203;28;20406;-66
2023/05/14 07:38:20;;;;;;;;;;;16.60;99.90;;;;;;5047035;28;20007;-69
2023/05/14 07:40:46;;;;;;;;;;;16.60;99.90;;;;;;5042990;28;19928;-66
2023/05/14 07:43:11;;;;;;;;;;;16.70;99.90;;;;;;5048283;28;19921;-67
2023/05/14 07:45:38;;;;;;;;;;;16.80;99.90;;;;;;5045252;28;19921;-67
2023/05/14 07:48:03;;;;;;;;;;;16.80;99.90;;;;;;5043974;28;19925;-69
2023/05/14 07:50:29;;;;;;;;;;;16.90;99.90;;;;;;5052677;28;19931;-67
2023/05/14 07:52:54;;;;;;;;;;;16.90;99.90;;;;;;5037942;28;20342;-68
2023/05/14 07:55:20;;;;;;;;;;;17.00;99.90;;;;;;5042802;28;19921;-68
2023/05/14 07:57:45;;;;;;;;;;;17.00;99.90;;;;;;5050006;28;20007;-68
2023/05/14 08:00:11;;;;;;;;;;;17.00;99.90;;;;;;5042576;28;19982;-68
2023/05/14 08:02:37;;;;;;;;;;;17.10;99.90;;;;;;5035984;28;20003;-68
2023/05/14 08:05:03;;;;;;;;;;;17.10;99.90;;;;;;5040118;28;19975;-68
2023/05/14 08:07:29;;;;;;;;;;;17.20;99.90;;;;;;5031349;28;19921;-68
2023/05/14 08:09:54;;;;;;;;;;;17.40;99.90;;;;;;5041469;28;19921;-68
2023/05/14 08:12:20;;;;;;;;;;;17.40;99.90;;;;;;5043140;28;19929;-68
2023/05/14 08:14:45;;;;;;;;;;;17.40;99.90;;;;;;5050354;28;19931;-68
2023/05/14 08:17:11;;;;;;;;;;;17.50;99.90;;;;;;5040287;28;19971;-69
2023/05/14 08:19:36;;;;;;;;;;;17.50;99.90;;;;;;5042896;28;19991;-69
2023/05/14 08:22:02;;;;;;;;;;;17.60;99.90;;;;;;5044373;28;19921;-69
2023/05/14 08:24:28;;;;;;;;;;;17.70;99.90;;;;;;5048857;28;19950;-69
2023/05/14 08:26:54;;;;;;;;;;;17.80;99.90;;;;;;5048423;28;20292;-69
2023/05/14 08:29:19;;;;;;;;;;;17.80;99.90;;;;;;5043353;28;19924;-69
2023/05/14 08:31:45;;;;;;;;;;;17.90;99.90;;;;;;5051627;28;19921;-69
2023/05/14 08:34:10;;;;;;;;;;;17.90;99.90;;;;;;5038026;28;19933;-69
2023/05/14 08:36:36;;;;;;;;;;;18.00;99.90;;;;;;5043390;28;19925;-69
2023/05/14 08:39:02;;;;;;;;;;;18.00;99.90;;;;;;5051423;28;19925;-69
2023/05/14 08:41:27;;;;;;;;;;;18.00;99.90;;;;;;5052001;28;19921;-69
2023/05/14 08:44:05;;;;;;;;;;;18.00;99.90;;;;;;5037078;28;19921;-70
2023/05/14 08:46:31;;;;;;;;;;;18.00;99.90;;;;;;5039212;28;19925;-69
2023/05/14 08:49:02;;;;;;;;;;;18.00;99.90;;;;;;5047569;28;20338;-69
2023/05/14 08:51:28;;;;;;;;;;;18.20;99.90;;;;;;5037264;28;19967;-69
2023/05/14 08:53:53;;;;;;;;;;;18.30;99.90;;;;;;5041161;28;19932;-69
2023/05/14 08:56:20;;;;;;;;;;;18.50;99.90;;;;;;5051737;28;19931;-67
2023/05/14 08:58:45;;;;;;;;;;;18.50;99.90;;;;;;5044744;28;20019;-67
2023/05/14 09:01:11;;;;;;;;;;;18.80;99.90;;;;;;5047892;28;20012;-69
2023/05/14 09:03:37;;;;;;;;;;;18.90;99.90;;;;;;5045201;28;19921;-68
2023/05/14 09:06:03;;;;;;;;;;;19.10;99.90;;;;;;5036662;28;19987;-69
2023/05/14 09:08:28;;;;;;;;;;;19.20;99.90;;;;;;5027039;28;19987;-67
2023/05/14 09:10:54;;;;;;;;;;;19.30;99.90;;;;;;5027054;28;19967;-67
2023/05/14 09:13:19;;;;;;;;;;;19.50;99.90;;;;;;5034787;28;20028;-69
2023/05/14 09:15:46;;;;;;;;;;;19.50;99.90;;;;;;5036154;28;19974;-68
2023/05/14 09:18:12;;;;;;;;;;;19.70;99.90;;;;;;5028364;28;19921;-67
2023/05/14 09:20:38;;;;;;;;;;;19.80;99.90;;;;;;5036365;28;20326;-67
2023/05/14 09:23:03;;;;;;;;;;;19.80;99.90;;;;;;5046518;28;19959;-68
2023/05/14 09:25:31;;;;;;;;;;;19.80;99.90;;;;;;5052104;28;20090;-68
2023/05/14 09:28:00;;;;;;;;;;;19.80;99.90;;;;;;5044454;28;20431;-68
2023/05/14 09:30:26;;;;;;;;;;;19.70;99.90;;;;;;5041277;28;19921;-70
2023/05/14 09:32:52;;;;;;;;;;;19.70;99.90;;;;;;5038594;28;20010;-72
2023/05/14 09:35:22;;;;;;;;;;;19.50;99.90;;;;;;5031817;28;19975;-68
2023/05/14 09:37:48;;;;;;;;;;;19.40;99.90;;;;;;5026461;28;19925;-69
2023/05/14 09:40:15;;;;;;;;;;;19.50;99.90;;;;;;5027637;28;19925;-67
2023/05/14 09:42:40;;;;;;;;;;;19.40;99.90;;;;;;5031280;28;20417;-70
2023/05/14 09:45:07;;;;;;;;;;;19.30;99.90;;;;;;5027117;28;19925;-68
2023/05/14 09:47:32;;;;;;;;;;;19.30;99.90;;;;;;5029058;28;19925;-68
2023/05/14 09:49:58;;;;;;;;;;;19.10;99.90;;;;;;5026773;28;19932;-69
2023/05/14 09:52:23;;;;;;;;;;;19.10;99.90;;;;;;5024365;28;19925;-66
2023/05/14 09:54:50;;;;;;;;;;;19.30;99.90;;;;;;5032597;28;19929;-68
2023/05/14 09:57:16;;;;;;;;;;;19.60;99.90;;;;;;5007983;28;19932;-69
2023/05/14 09:59:41;;;;;;;;;;;19.70;99.90;;;;;;5026111;28;19925;-68
2023/05/14 10:02:12;;;;;;;;;;;19.70;99.90;;;;;;5025088;28;19974;-68
2023/05/14 10:04:37;;;;;;;;;;;19.70;99.90;;;;;;5029267;28;19933;-68
2023/05/14 10:07:03;;;;;;;;;;;19.80;99.90;;;;;;5025629;28;19925;-68
2023/05/14 10:09:29;;;;;;;;;;;19.80;99.90;;;;;;5028936;28;19925;-68
2023/05/14 10:11:57;;;;;;;;;;;19.80;99.90;;;;;;5033925;28;19955;-68
2023/05/14 10:14:30;;;;;;;;;;;19.90;99.90;;;;;;5029706;28;20009;-67
2023/05/14 10:16:57;;;;;;;;;;;19.90;99.90;;;;;;5033536;28;20458;-73
2023/05/14 10:19:23;;;;;;;;;;;19.90;99.90;;;;;;5043952;28;19936;-69
2023/05/14 10:21:54;;;;;;;;;;;20.00;99.90;;;;;;5037975;28;20432;-71
2023/05/14 10:24:20;;;;;;;;;;;20.00;99.90;;;;;;5017360;28;20490;-65
2023/05/14 10:26:46;;;;;;;;;;;20.10;99.90;;;;;;5045071;28;19925;-69
2023/05/14 10:29:11;;;;;;;;;;;20.20;99.90;;;;;;5040245;28;19996;-67
2023/05/14 10:31:45;;;;;;;;;;;20.10;99.20;;;;;;5039782;28;19921;-68
2023/05/14 10:34:30;;;;;;;;;;;20.30;99.90;;;;;;5045667;28;20341;-68
2023/05/14 10:36:59;;;;;;;;;;;20.50;98.20;;;;;;5054038;28;19940;-69
2023/05/14 10:39:38;;;;;;;;;;;20.70;99.60;;;;;;5048771;28;19946;-69
2023/05/14 10:42:04;;;;;;;;;;;20.90;99.50;;;;;;5044113;28;20414;-69
2023/05/14 10:44:31;;;;;;;;;;;21.00;99.30;;;;;;5054079;28;19925;-68
2023/05/14 10:46:56;;;;;;;;;;;21.20;99.60;;;;;;5042942;28;20379;-69
2023/05/14 10:49:22;;;;;;;;;;;21.20;97.70;;;;;;5040002;28;19959;-69
2023/05/14 10:51:48;;;;;;;;;;;21.40;98.00;;;;;;5034278;28;20039;-69
2023/05/14 10:54:15;;;;;;;;;;;21.50;97.90;;;;;;5036461;28;19931;-71
2023/05/14 10:56:42;;;;;;;;;;;21.60;98.20;;;;;;5034133;28;19932;-69
2023/05/14 10:59:09;;;;;;;;;;;21.70;94.90;;;;;;5031761;28;19921;-70
2023/05/14 11:01:34;;;;;;;;;;;21.70;95.80;;;;;;5048011;28;19971;-70
2023/05/14 11:04:01;;;;;;;;;;;21.70;93.20;;;;;;5050315;28;19929;-71
2023/05/14 11:06:28;;;;;;;;;;;21.90;95.60;;;;;;5043494;28;19991;-70
2023/05/14 11:08:53;;;;;;;;;;;22.00;96.20;;;;;;5052645;28;20016;-70
2023/05/14 11:11:19;;;;;;;;;;;22.10;95.20;;;;;;5053637;28;20015;-70
2023/05/14 11:13:45;;;;;;;;;;;22.30;95.10;;;;;;5044522;28;19925;-70
2023/05/14 11:16:10;;;;;;;;;;;22.50;95.30;;;;;;5044841;28;19925;-71
2023/05/14 11:18:37;;;;;;;;;;;22.50;94.90;;;;;;5033673;28;20506;-68
2023/05/14 11:21:03;;;;;;;;;;;22.60;95.10;;;;;;5033834;28;19925;-68
2023/05/14 11:23:28;;;;;;;;;;;22.60;94.50;;;;;;5033369;28;19921;-69
2023/05/14 11:25:55;;;;;;;;;;;22.30;94.30;;;;;;5063169;28;20003;-69
2023/05/14 11:28:21;;;;;;;;;;;22.50;96.10;;;;;;5047186;28;20119;-68
2023/05/14 11:30:47;;;;;;;;;;;22.60;95.80;;;;;;5040127;28;19920;-69
2023/05/14 11:33:12;;;;;;;;;;;22.80;97.00;;;;;;5043630;28;19983;-65
2023/05/14 11:35:38;;;;;;;;;;;22.90;92.70;;;;;;5036410;28;19964;-66
2023/05/14 11:38:03;;;;;;;;;;;22.90;93.00;;;;;;5037928;28;20330;-65
2023/05/14 11:40:29;;;;;;;;;;;23.10;93.00;;;;;;5048954;28;19921;-69
2023/05/14 11:42:55;;;;;;;;;;;23.30;95.40;;;;;;5049713;28;19921;-65
2023/05/14 11:45:25;;;;;;;;;;;23.40;94.60;;;;;;5044214;28;19925;-65
2023/05/14 11:47:51;;;;;;;;;;;23.30;92.90;;;;;;5047516;28;19932;-65
2023/05/14 11:50:16;;;;;;;;;;;23.20;91.70;;;;;;5046298;28;19921;-65
2023/05/14 11:52:42;;;;;;;;;;;23.00;90.40;;;;;;5043572;28;19920;-67
2023/05/14 11:55:11;;;;;;;;;;;22.90;91.80;;;;;;5051152;28;20394;-65
2023/05/14 11:57:37;;;;;;;;;;;22.80;91.70;;;;;;5042528;28;19971;-65
2023/05/14 12:00:05;;;;;;;;;;;22.80;91.00;;;;;;5051960;28;19920;-65
2023/05/14 12:02:30;;;;;;;;;;;22.90;92.30;;;;;;5045328;28;19932;-68
2023/05/14 12:04:56;;;;;;;;;;;23.10;90.90;;;;;;5042192;28;19987;-66
2023/05/14 12:07:21;;;;;;;;;;;23.10;92.10;;;;;;5043844;28;19967;-65
2023/05/14 12:09:48;;;;;;;;;;;23.20;82.40;;;;;;5043742;28;19921;-65
2023/05/14 12:12:15;;;;;;;;;;;23.40;87.10;;;;;;5039769;28;20321;-65
2023/05/14 12:14:41;;;;;;;;;;;23.60;91.50;;;;;;5042726;28;19929;-64
2023/05/14 12:17:17;;;;;;;;;;;23.90;89.50;;;;;;5030615;28;19925;-65
2023/05/14 12:19:43;;;;;;;;;;;23.70;80.70;;;;;;5036713;28;19974;-65
2023/05/14 12:22:09;;;;;;;;;;;24.00;79.50;;;;;;5043797;28;19932;-65
2023/05/14 12:24:35;;;;;;;;;;;24.10;85.60;;;;;;5054105;28;19952;-65
2023/05/14 12:27:01;;;;;;;;;;;24.30;88.10;;;;;;5045884;28;20291;-66
2023/05/14 12:29:26;;;;;;;;;;;24.40;82.80;;;;;;5043472;28;20034;-64
2023/05/14 12:31:52;;;;;;;;;;;24.50;78.30;;;;;;5043506;28;19924;-65
2023/05/14 12:34:17;;;;;;;;;;;24.60;80.80;;;;;;5046241;28;19925;-66
2023/05/14 12:36:43;;;;;;;;;;;24.80;84.40;;;;;;5039033;28;20351;-64
2023/05/14 12:39:09;;;;;;;;;;;24.70;81.30;;;;;;5042830;28;20463;-65
2023/05/14 12:41:35;;;;;;;;;;;24.50;86.30;;;;;;5051709;28;19920;-65
2023/05/14 12:44:01;;;;;;;;;;;24.50;77.60;;;;;;5037865;28;19947;-65
2023/05/14 12:46:27;;;;;;;;;;;24.50;78.30;;;;;;5041981;28;19927;-65
2023/05/14 12:48:53;;;;;;;;;;;24.50;78.80;;;;;;5050959;28;20008;-65
2023/05/14 12:51:19;;;;;;;;;;;24.60;80.60;;;;;;5047156;28;19975;-65
2023/05/14 12:53:44;;;;;;;;;;;24.60;75.70;;;;;;5049616;28;20355;-65
2023/05/14 12:56:10;;;;;;;;;;;24.50;78.20;;;;;;5044799;28;19939;-65
2023/05/14 12:58:36;;;;;;;;;;;24.60;80.10;;;;;;5043732;28;19931;-65
2023/05/14 13:01:01;;;;;;;;;;;24.60;72.50;;;;;;5037973;28;19960;-65
2023/05/14 13:03:27;;;;;;;;;;;24.50;70.40;;;;;;5039884;28;20008;-66
2023/05/14 13:05:52;;;;;;;;;;;24.60;73.90;;;;;;5049601;28;19921;-66
2023/05/14 13:08:20;;;;;;;;;;;24.60;71.40;;;;;;5051423;28;19979;-66
2023/05/14 13:10:46;;;;;;;;;;;24.50;69.80;;;;;;5039475;28;20379;-66
2023/05/14 13:13:13;;;;;;;;;;;24.50;69.00;;;;;;5043194;28;19928;-66
2023/05/14 13:15:39;;;;;;;;;;;24.40;73.30;;;;;;5048949;28;20295;-65
2023/05/14 13:18:05;;;;;;;;;;;24.40;74.30;;;;;;5048989;28;20371;-66
2023/05/14 13:20:30;;;;;;;;;;;24.40;70.00;;;;;;5043450;28;19956;-66
2023/05/14 13:22:56;;;;;;;;;;;24.40;74.20;;;;;;5051123;28;19974;-66
2023/05/14 13:25:21;;;;;;;;;;;24.30;75.40;;;;;;5038117;28;19921;-66
2023/05/14 13:27:49;;;;;;;;;;;24.40;70.90;;;;;;5041292;28;20007;-65
2023/05/14 13:30:18;;;;;;;;;;;24.50;76.50;;;;;;5037000;28;19921;-66
2023/05/14 13:32:44;;;;;;;;;;;24.30;71.60;;;;;;5038209;28;20371;-65
2023/05/14 13:35:10;;;;;;;;;;;24.40;70.70;;;;;;5042211;28;19931;-66
2023/05/14 13:37:35;;;;;;;;;;;24.40;71.60;;;;;;5041430;28;20020;-66
2023/05/14 13:40:03;;;;;;;;;;;24.50;70.10;;;;;;5048130;28;19928;-66
2023/05/14 13:42:28;;;;;;;;;;;24.60;67.70;;;;;;5028710;28;20391;-62
2023/05/14 13:44:55;;;;;;;;;;;24.40;71.60;;;;;;5036265;28;19994;-66
2023/05/14 13:47:20;;;;;;;;;;;24.40;69.00;;;;;;5051057;28;19924;-66
2023/05/14 13:49:46;;;;;;;;;;;24.60;71.60;;;;;;5045118;28;19947;-66
2023/05/14 13:52:11;;;;;;;;;;;24.70;69.80;;;;;;5040277;28;19927;-67
2023/05/14 13:54:37;;;;;;;;;;;24.90;73.30;;;;;;5038050;28;19926;-66
2023/05/14 13:57:02;;;;;;;;;;;25.00;69.90;;;;;;5044325;28;19920;-66
2023/05/14 13:59:28;;;;;;;;;;;24.90;68.10;;;;;;5054791;28;19921;-67
2023/05/14 14:01:53;;;;;;;;;;;25.00;69.00;;;;;;5041699;28;20566;-67
2023/05/14 14:04:19;;;;;;;;;;;25.10;67.80;;;;;;5043658;28;19929;-66
2023/05/14 14:06:44;;;;;;;;;;;25.10;65.30;;;;;;5048406;28;20383;-66
2023/05/14 14:09:12;;;;;;;;;;;25.30;65.90;;;;;;5053493;28;19947;-66